createdAt,value
2023-02-19T00:03:18.673Z,57.66
2023-02-19T00:08:20.511Z,57.68
2023-02-19T00:13:22.470Z,57.46
2023-02-19T00:18:24.568Z,57.68
2023-02-19T00:23:27.136Z,57.43
2023-02-19T00:28:28.948Z,57.37
2023-02-19T00:33:30.985Z,57.46
2023-02-19T00:38:36.969Z,57.59
2023-02-19T00:43:38.795Z,57.55
2023-02-19T00:48:40.623Z,58.02
2023-02-19T00:53:42.959Z,57.81
2023-02-19T00:58:46.577Z,57.72
2023-02-19T01:03:49.118Z,57.71
2023-02-19T01:08:57.055Z,58.00
2023-02-19T01:14:00.272Z,58.21
2023-02-19T01:19:02.367Z,58.50
2023-02-19T01:24:04.240Z,59.14
2023-02-19T01:29:06.102Z,59.96
2023-02-19T01:34:12.376Z,60.45
2023-02-19T01:39:14.514Z,60.96
2023-02-19T01:44:17.890Z,61.53
2023-02-19T01:49:30.236Z,61.59
2023-02-19T01:54:36.597Z,61.63
2023-02-19T01:59:38.914Z,61.83
2023-02-19T02:04:40.813Z,61.67
2023-02-19T02:10:05.630Z,61.63
2023-02-19T02:15:08.246Z,61.69
2023-02-19T02:20:13.210Z,61.97
2023-02-19T02:25:33.190Z,62.53
2023-02-19T02:30:50.315Z,62.67
2023-02-19T02:35:58.115Z,62.88
2023-02-19T02:41:00.982Z,62.90
2023-02-19T02:46:04.248Z,63.06
2023-02-19T02:51:14.026Z,62.94
2023-02-19T02:56:24.660Z,63.14
2023-02-19T03:02:00.842Z,62.66
2023-02-19T03:07:08.747Z,62.34
2023-02-19T03:12:33.694Z,62.31
2023-02-19T03:18:00.372Z,62.59
2023-02-19T03:23:02.781Z,62.21
2023-02-19T03:28:08.972Z,62.37
2023-02-19T03:33:16.110Z,62.04
2023-02-19T03:38:28.988Z,61.49
2023-02-19T03:43:31.796Z,61.74
2023-02-19T03:48:36.178Z,62.23
2023-02-19T03:53:50.630Z,62.23
2023-02-19T03:58:58.929Z,61.86
2023-02-19T04:04:26.634Z,61.80
2023-02-19T04:09:44.396Z,62.03
2023-02-19T04:15:00.969Z,61.43
2023-02-19T04:20:07.571Z,61.63
2023-02-19T04:25:09.704Z,61.50
2023-02-19T04:30:13.894Z,61.31
2023-02-19T04:35:15.748Z,61.00
2023-02-19T04:40:17.629Z,60.87
2023-02-19T04:45:19.464Z,61.18
2023-02-19T04:50:22.984Z,61.35
2023-02-19T04:55:24.780Z,61.66
2023-02-19T05:00:26.630Z,62.98
2023-02-19T05:05:28.619Z,62.75
2023-02-19T05:10:30.937Z,63.10
2023-02-19T05:15:32.816Z,62.92
2023-02-19T05:20:34.657Z,63.32
2023-02-19T05:25:36.476Z,63.03
2023-02-19T05:30:38.271Z,63.11
2023-02-19T05:35:42.198Z,62.83
2023-02-19T05:40:45.292Z,62.80
2023-02-19T05:45:47.214Z,62.78
2023-02-19T05:50:49.019Z,62.72
2023-02-19T05:55:50.849Z,62.75
2023-02-19T06:00:53.111Z,62.71
2023-02-19T06:05:55.008Z,63.35
2023-02-19T06:10:58.070Z,63.45
2023-02-19T06:15:59.921Z,63.57
2023-02-19T06:21:03.746Z,63.79
2023-02-19T06:26:11.015Z,63.75
2023-02-19T06:31:13.447Z,63.73
2023-02-19T06:36:18.986Z,63.44
2023-02-19T06:41:20.836Z,63.12
2023-02-19T06:46:22.665Z,63.74
2023-02-19T06:51:27.207Z,63.81
2023-02-19T06:56:34.690Z,63.64
2023-02-19T07:01:37.509Z,63.33
2023-02-19T07:06:39.423Z,63.75
2023-02-19T07:11:41.639Z,63.86
2023-02-19T07:16:44.639Z,64.33
2023-02-19T07:21:46.477Z,63.64
2023-02-19T07:26:48.465Z,62.88
2023-02-19T07:31:50.394Z,63.26
2023-02-19T07:36:52.214Z,63.53
2023-02-19T07:41:54.083Z,63.20
2023-02-19T07:47:02.300Z,62.76
2023-02-19T07:52:04.265Z,63.12
2023-02-19T07:57:06.108Z,62.26
2023-02-19T08:02:39.077Z,62.59
2023-02-19T08:07:41.165Z,61.57
2023-02-19T08:13:01.747Z,61.25
2023-02-19T08:18:03.471Z,61.25
2023-02-19T08:23:05.910Z,61.43
2023-02-19T08:28:09.733Z,61.46
2023-02-19T08:33:14.564Z,60.73
2023-02-19T08:38:19.137Z,60.68
2023-02-19T08:43:20.884Z,60.47
2023-02-19T08:48:22.688Z,60.28
2023-02-19T08:53:25.588Z,60.75
2023-02-19T08:58:27.447Z,60.37
2023-02-19T09:03:29.325Z,60.88
2023-02-19T09:08:31.155Z,60.38
2023-02-19T09:13:33.034Z,60.54
2023-02-19T09:18:35.787Z,60.05
2023-02-19T09:23:38.008Z,60.35
2023-02-19T09:28:41.877Z,60.32
2023-02-19T09:33:48.642Z,60.07
2023-02-19T09:38:50.458Z,60.63
2023-02-19T09:43:52.445Z,60.06
2023-02-19T09:49:01.803Z,60.37
2023-02-19T09:54:06.350Z,59.94
2023-02-19T09:59:20.128Z,60.14
2023-02-19T10:04:21.899Z,59.80
2023-02-19T10:09:27.040Z,59.85
2023-02-19T10:14:44.436Z,59.73
2023-02-19T10:19:46.197Z,60.09
2023-02-19T10:24:53.137Z,59.88
2023-02-19T10:29:54.922Z,60.31
2023-02-19T10:35:11.920Z,60.40
2023-02-19T10:40:18.151Z,60.42
2023-02-19T10:45:29.754Z,60.30
2023-02-19T10:50:35.079Z,60.27
2023-02-19T10:55:38.494Z,59.74
2023-02-19T11:00:40.431Z,59.82
2023-02-19T11:05:53.851Z,60.08
2023-02-19T11:10:55.698Z,59.92
2023-02-19T11:15:58.227Z,59.55
2023-02-19T11:21:03.130Z,59.32
2023-02-19T11:26:07.314Z,59.46
2023-02-19T11:31:32.070Z,59.12
2023-02-19T11:36:35.946Z,59.02
2023-02-19T11:41:55.229Z,59.00
2023-02-19T11:46:56.920Z,58.55
2023-02-19T11:52:16.953Z,58.83
2023-02-19T11:57:54.833Z,58.34
2023-02-19T12:03:02.485Z,58.56
2023-02-19T12:08:16.381Z,58.31
2023-02-19T12:13:27.022Z,58.51
2023-02-19T12:18:37.900Z,58.01
2023-02-19T12:23:56.785Z,57.63
2023-02-19T12:29:17.146Z,57.63
2023-02-19T12:34:37.309Z,57.70
2023-02-19T12:40:01.028Z,56.80
2023-02-19T12:45:17.785Z,56.48
2023-02-19T12:50:24.388Z,56.26
2023-02-19T12:55:28.670Z,55.85
2023-02-19T13:00:33.415Z,55.43
2023-02-19T13:05:37.887Z,54.98
2023-02-19T13:10:47.514Z,54.74
2023-02-19T13:15:56.890Z,54.02
2023-02-19T13:20:59.863Z,53.87
2023-02-19T13:26:17.327Z,53.04
2023-02-19T13:31:49.906Z,52.62
2023-02-19T13:36:52.243Z,52.43
2023-02-19T13:41:56.810Z,51.99
2023-02-19T13:46:59.615Z,51.48
2023-02-19T13:57:44.974Z,51.54
2023-02-19T14:02:46.775Z,51.64
2023-02-19T14:07:54.592Z,49.27
2023-02-19T14:12:56.367Z,45.97
2023-02-19T14:17:58.124Z,45.67
2023-02-19T14:23:09.184Z,43.72
2023-02-19T14:28:11.580Z,44.60
2023-02-19T14:33:16.825Z,45.59
2023-02-19T14:38:23.613Z,45.29
2023-02-19T14:43:27.738Z,44.53
2023-02-19T14:48:36.693Z,45.82
2023-02-19T14:53:42.734Z,45.97
2023-02-19T14:58:44.964Z,46.91
2023-02-19T15:03:56.582Z,47.69
2023-02-19T15:09:02.793Z,47.47
2023-02-19T15:14:07.360Z,47.99
2023-02-19T15:24:46.046Z,48.65
2023-02-19T15:30:14.613Z,48.98
2023-02-19T15:35:20.202Z,49.17
2023-02-19T15:40:28.458Z,49.29
2023-02-19T15:45:47.208Z,49.62
2023-02-19T15:50:55.041Z,50.31
2023-02-19T15:56:12.659Z,49.88
2023-02-19T16:01:28.958Z,50.09
2023-02-19T16:06:59.913Z,50.02
2023-02-19T16:12:33.607Z,50.27
2023-02-19T16:17:35.632Z,50.84
2023-02-19T16:22:42.049Z,50.52
2023-02-19T16:27:43.965Z,50.91
2023-02-19T16:32:46.971Z,51.22
2023-02-19T16:37:59.905Z,51.15
2023-02-19T16:43:04.524Z,51.08
2023-02-19T16:48:08.001Z,51.07
2023-02-19T16:53:26.844Z,51.51
2023-02-19T16:58:28.674Z,51.77
2023-02-19T17:03:30.654Z,51.48
2023-02-19T17:14:09.349Z,51.71
2023-02-19T17:19:17.163Z,51.89
2023-02-19T17:24:19.025Z,52.01
2023-02-19T17:29:20.901Z,51.85
2023-02-19T17:34:22.677Z,51.59
2023-02-19T17:39:24.663Z,52.01
2023-02-19T17:44:26.421Z,51.60
2023-02-19T17:49:28.182Z,51.75
2023-02-19T17:54:30.001Z,51.71
2023-02-19T17:59:31.772Z,51.85
2023-02-19T18:04:35.565Z,51.79
2023-02-19T18:09:41.086Z,52.03
2023-02-19T18:14:46.608Z,52.47
2023-02-19T18:19:48.366Z,52.05
2023-02-19T18:24:52.103Z,51.96
2023-02-19T18:29:55.740Z,52.12
2023-02-19T18:34:58.950Z,51.62
2023-02-19T18:40:01.755Z,52.04
2023-02-19T18:45:04.377Z,52.28
2023-02-19T18:50:08.423Z,52.66
2023-02-19T18:55:11.423Z,52.67
2023-02-19T19:00:19.159Z,52.12
2023-02-19T19:05:23.064Z,52.38
2023-02-19T19:10:26.159Z,52.28
2023-02-19T19:15:28.782Z,52.45
2023-02-19T19:20:30.572Z,52.73
2023-02-19T19:25:32.451Z,52.44
2023-02-19T19:30:34.285Z,52.81
2023-02-19T19:35:36.159Z,52.84
2023-02-19T19:40:37.967Z,52.84
2023-02-19T19:45:39.754Z,53.04
2023-02-19T19:50:41.514Z,53.15
2023-02-19T19:55:43.252Z,53.11
2023-02-19T20:00:45.004Z,53.13
2023-02-19T20:05:50.290Z,52.81
2023-02-19T20:10:52.143Z,52.83
2023-02-19T20:15:53.979Z,53.13
2023-02-19T20:20:55.738Z,53.38
2023-02-19T20:25:57.752Z,53.46
2023-02-19T20:31:16.670Z,53.46
2023-02-19T20:36:20.201Z,52.87
2023-02-19T20:41:22.009Z,53.50
2023-02-19T20:46:24.383Z,53.74
2023-02-19T20:51:26.172Z,53.48
2023-02-19T20:56:28.097Z,53.47
2023-02-19T21:01:29.836Z,53.54
2023-02-19T21:06:31.668Z,54.09
2023-02-19T21:11:33.639Z,53.88
2023-02-19T21:16:35.416Z,53.75
2023-02-19T21:21:39.408Z,54.05
2023-02-19T21:26:43.314Z,53.54
2023-02-19T21:31:50.222Z,54.17
2023-02-19T21:36:52.344Z,54.49
2023-02-19T21:41:54.424Z,54.13
2023-02-19T21:46:56.242Z,54.60
2023-02-19T21:51:58.159Z,55.00
2023-02-19T21:57:02.329Z,55.46
2023-02-19T22:02:04.208Z,55.52
2023-02-19T22:07:06.008Z,55.35
2023-02-19T22:12:07.795Z,55.59
2023-02-19T22:17:09.702Z,54.94
2023-02-19T22:22:11.500Z,54.51
2023-02-19T22:27:13.270Z,54.61
2023-02-19T22:32:15.300Z,54.49
2023-02-19T22:37:17.126Z,54.65
2023-02-19T22:42:19.098Z,54.72
2023-02-19T22:47:21.120Z,54.51
2023-02-19T22:52:24.109Z,54.42
2023-02-19T22:57:26.030Z,54.38
2023-02-19T23:02:27.776Z,54.31
2023-02-19T23:07:29.560Z,54.99
2023-02-19T23:12:31.311Z,55.41
2023-02-19T23:17:33.182Z,56.16
2023-02-19T23:22:35.294Z,57.00
2023-02-19T23:27:37.866Z,57.67
2023-02-19T23:32:39.644Z,57.47
2023-02-19T23:37:41.423Z,57.25
2023-02-19T23:42:43.197Z,56.91
2023-02-19T23:47:44.995Z,56.32
2023-02-19T23:52:46.882Z,56.85
2023-02-19T23:57:48.733Z,56.81
